Time;durP1;ratioP1;P1;durP2;ratioP2;P2;SDS_P1;SDS_P2;PMS_P1;PMS_P2;Temp;Humidity;BMP_temperature;BMP_pressure;BME280_temperature;BME280_humidity;BME280_pressure;Samples;Min_cycle;Max_cycle;Signal;HPM_P1;HPM_P2
2021/03/21 00:00:28;;;;;;;3.60;2.90;;;6.90;96.40;;;;;;5054652;28;20051;-76
2021/03/21 00:02:55;;;;;;;4.97;2.20;;;6.80;96.40;;;;;;5070867;28;20044;-76
2021/03/21 00:05:22;;;;;;;6.13;2.53;;;6.80;96.50;;;;;;5068182;28;20036;-76
2021/03/21 00:07:54;;;;;;;3.83;3.10;;;6.80;96.50;;;;;;5062649;28;20036;-76
2021/03/21 00:10:21;;;;;;;3.85;3.00;;;6.80;96.50;;;;;;5070704;28;20025;-76
2021/03/21 00:12:48;;;;;;;3.93;2.73;;;6.80;96.50;;;;;;5057438;28;20044;-76
2021/03/21 00:15:15;;;;;;;4.57;3.47;;;6.80;96.60;;;;;;5070217;28;20503;-76
2021/03/21 00:17:42;;;;;;;3.43;2.50;;;6.80;96.60;;;;;;5052702;28;20049;-76
2021/03/21 00:20:10;;;;;;;4.63;2.90;;;6.80;96.60;;;;;;5049474;28;20024;-76
2021/03/21 00:22:37;;;;;;;5.70;3.13;;;6.80;96.60;;;;;;5069735;28;20029;-76
2021/03/21 00:25:09;;;;;;;8.37;4.50;;;6.80;96.60;;;;;;5052580;28;20032;-76
2021/03/21 00:27:36;;;;;;;5.50;3.88;;;6.80;96.70;;;;;;5036426;28;20506;-76
2021/03/21 00:30:09;;;;;;;4.50;3.83;;;6.70;96.70;;;;;;5019387;28;20040;-76
2021/03/21 00:32:35;;;;;;;;;;;6.70;96.70;;;;;;5070541;28;20044;-76
2021/03/21 00:35:04;;;;;;;6.33;5.37;;;6.70;96.70;;;;;;5050619;28;19916;-76
2021/03/21 00:37:30;;;;;;;8.73;5.50;;;6.70;96.80;;;;;;5050720;28;20040;-76
2021/03/21 00:39:57;;;;;;;7.07;5.10;;;6.60;96.80;;;;;;5039674;28;20033;-76
2021/03/21 00:42:23;;;;;;;7.40;5.23;;;6.60;96.90;;;;;;5053504;28;20055;-79
2021/03/21 00:44:50;;;;;;;9.80;6.17;;;6.60;97.00;;;;;;5053349;28;20051;-76
2021/03/21 00:47:16;;;;;;;8.70;6.17;;;6.60;97.00;;;;;;5050474;28;20040;-76
2021/03/21 00:49:43;;;;;;;6.50;5.00;;;6.60;97.00;;;;;;5049419;28;20052;-76
2021/03/21 00:52:09;;;;;;;7.53;4.57;;;6.60;97.10;;;;;;5072117;28;20036;-76
2021/03/21 00:54:36;;;;;;;6.27;4.97;;;6.60;97.10;;;;;;5053828;28;20055;-76
2021/03/21 00:57:03;;;;;;;7.10;4.53;;;6.60;97.10;;;;;;5048143;28;20391;-76
2021/03/21 00:59:29;;;;;;;7.40;5.23;;;6.60;97.10;;;;;;5073831;28;20047;-79
2021/03/21 01:01:56;;;;;;;7.87;5.40;;;6.70;97.10;;;;;;5063531;28;20028;-79
2021/03/21 01:04:22;;;;;;;7.40;5.87;;;6.60;97.10;;;;;;5060988;28;20044;-79
2021/03/21 01:06:49;;;;;;;6.37;4.63;;;6.60;97.10;;;;;;5059805;28;20047;-79
2021/03/21 01:09:15;;;;;;;6.97;5.73;;;6.60;97.20;;;;;;5047781;28;20036;-79
2021/03/21 01:11:42;;;;;;;4.80;4.27;;;6.60;97.20;;;;;;5063729;28;20060;-79
2021/03/21 01:14:09;;;;;;;9.27;4.77;;;6.60;97.20;;;;;;5059052;28;20036;-79
2021/03/21 01:16:42;;;;;;;7.33;5.83;;;6.60;97.20;;;;;;5038867;28;20040;-79
2021/03/21 01:19:18;;;;;;;7.40;4.40;;;6.60;97.20;;;;;;5074241;28;20043;-79
2021/03/21 01:21:46;;;;;;;9.30;4.50;;;6.60;97.20;;;;;;5074839;28;20047;-79
2021/03/21 01:24:15;;;;;;;4.63;3.53;;;6.60;97.30;;;;;;5056560;28;20352;-79
2021/03/21 01:26:41;;;;;;;4.07;3.10;;;6.60;97.30;;;;;;5073532;28;20063;-80
2021/03/21 01:29:08;;;;;;;4.20;3.17;;;6.60;97.30;;;;;;5073607;28;20036;-79
2021/03/21 01:31:35;;;;;;;4.73;3.43;;;6.60;97.30;;;;;;5080696;28;20040;-79
2021/03/21 01:34:01;;;;;;;5.73;3.20;;;6.60;97.30;;;;;;5076707;28;20402;-79
2021/03/21 01:36:31;;;;;;;5.37;3.27;;;6.70;97.30;;;;;;5070176;28;20040;-79
2021/03/21 01:39:00;;;;;;;3.03;2.30;;;6.70;97.30;;;;;;5073010;28;20040;-79
2021/03/21 01:41:36;;;;;;;4.13;2.60;;;6.70;97.20;;;;;;5058120;28;20035;-79
2021/03/21 01:44:14;;;;;;;5.40;2.43;;;6.60;97.30;;;;;;5075083;28;20040;-76
2021/03/21 01:46:56;;;;;;;6.90;3.40;;;6.70;97.30;;;;;;5066908;28;20040;-76
2021/03/21 01:49:29;;;;;;;2.90;2.28;;;6.60;97.30;;;;;;5069407;28;20036;-79
2021/03/21 01:51:58;;;;;;;2.93;1.90;;;6.60;97.30;;;;;;5057527;28;20044;-79
2021/03/21 01:54:25;;;;;;;3.20;1.47;;;6.60;97.40;;;;;;5076955;28;20033;-79
2021/03/21 01:56:55;;;;;;;2.53;1.50;;;6.50;97.40;;;;;;5074740;28;20036;-79
2021/03/21 01:59:31;;;;;;;3.90;1.30;;;6.60;97.40;;;;;;5072182;28;20025;-79
2021/03/21 02:02:00;;;;;;;2.63;1.37;;;6.50;97.40;;;;;;5086905;28;20044;-79
2021/03/21 02:04:27;;;;;;;2.53;1.13;;;6.50;97.40;;;;;;5072891;28;20036;-79
2021/03/21 02:06:57;;;;;;;2.40;1.50;;;6.50;97.40;;;;;;5076043;28;20021;-76
2021/03/21 02:10:18;;;;;;;1.37;0.73;;;6.50;97.50;;;;;;5058517;28;20028;-79
2021/03/21 02:13:19;;;;;;;2.00;0.90;;;6.50;97.50;;;;;;4994801;28;20065;-76
2021/03/21 02:16:06;;;;;;;1.73;0.87;;;6.50;97.50;;;;;;5071361;28;20043;-76
2021/03/21 02:18:53;;;;;;;1.93;0.90;;;6.50;97.50;;;;;;5051011;28;20371;-76
2021/03/21 02:21:36;;;;;;;2.30;0.80;;;6.60;97.60;;;;;;5072506;28;20482;-77
2021/03/21 02:24:40;;;;;;;4.03;1.27;;;6.60;97.60;;;;;;5071065;28;21035;-76
2021/03/21 02:27:39;;;;;;;1.60;0.70;;;6.50;97.50;;;;;;5067549;28;20063;-76
2021/03/21 02:30:11;;;;;;;2.10;1.20;;;6.60;97.50;;;;;;5073054;28;20032;-75
2021/03/21 02:33:02;;;;;;;2.37;1.30;;;6.60;97.50;;;;;;5075702;28;20056;-79
2021/03/21 02:35:47;;;;;;;3.47;1.50;;;6.50;97.50;;;;;;5076231;28;20032;-79
2021/03/21 02:38:32;;;;;;;1.83;1.30;;;6.60;97.60;;;;;;5072940;28;20036;-80
2021/03/21 02:41:11;;;;;;;4.43;1.30;;;6.50;97.50;;;;;;5076252;28;20033;-79
2021/03/21 02:43:54;;;;;;;2.50;1.60;;;6.60;97.60;;;;;;5075412;28;20493;-79
2021/03/21 02:46:31;;;;;;;3.87;2.77;;;6.60;97.60;;;;;;5070508;28;20036;-79
2021/03/21 02:49:18;;;;;;;2.70;2.10;;;6.60;97.60;;;;;;5053270;28;20039;-79
2021/03/21 02:51:51;;;;;;;4.10;2.20;;;6.60;97.60;;;;;;5069911;28;20040;-79
2021/03/21 02:54:40;;;;;;;;;;;6.60;97.60;;;;;;5056675;28;20028;-79
2021/03/21 02:57:15;;;;;;;5.97;3.60;;;6.60;97.70;;;;;;5070049;28;19908;-79
2021/03/21 02:59:48;;;;;;;3.50;2.90;;;6.50;97.90;;;;;;5077749;28;20043;-79
2021/03/21 03:02:23;;;;;;;3.90;3.40;;;6.50;97.70;;;;;;5075104;28;20051;-79
2021/03/21 03:04:57;;;;;;;5.50;3.93;;;6.50;97.80;;;;;;5048927;28;20032;-79
2021/03/21 03:07:39;;;;;;;5.93;3.90;;;6.50;97.80;;;;;;5061848;28;20040;-77
2021/03/21 03:10:14;;;;;;;;;;;6.50;97.80;;;;;;5074105;28;20450;-76
2021/03/21 03:12:48;;;;;;;7.57;5.27;;;6.50;97.80;;;;;;5073652;28;19931;-76
2021/03/21 03:15:17;;;;;;;4.63;4.13;;;6.50;98.10;;;;;;5074054;28;20048;-77
2021/03/21 03:18:04;;;;;;;4.60;4.10;;;6.50;97.90;;;;;;5071234;28;20063;-77
2021/03/21 03:20:36;;;;;;;4.90;4.33;;;6.50;97.90;;;;;;5060831;28;20033;-77
2021/03/21 03:23:14;;;;;;;7.60;5.33;;;6.50;98.00;;;;;;5053455;28;20403;-77
2021/03/21 03:26:18;;;;;;;5.60;5.10;;;6.50;98.00;;;;;;5072751;28;20048;-77
2021/03/21 03:28:51;;;;;;;6.37;5.07;;;6.50;98.10;;;;;;5067509;28;20052;-76
2021/03/21 03:31:25;;;;;;;5.63;5.13;;;6.50;98.20;;;;;;5055235;28;20055;-75
2021/03/21 03:33:53;;;;;;;5.37;4.53;;;6.50;98.20;;;;;;5072813;28;20036;-75
2021/03/21 03:36:20;;;;;;;5.63;4.80;;;6.50;98.30;;;;;;5069901;28;20048;-75
2021/03/21 03:38:49;;;;;;;5.63;4.87;;;6.50;98.60;;;;;;5053232;28;20036;-75
2021/03/21 03:41:28;;;;;;;7.70;6.13;;;6.50;98.30;;;;;;5070633;28;20040;-75
2021/03/21 03:44:02;;;;;;;7.90;6.87;;;6.50;98.30;;;;;;5073395;28;20043;-75
2021/03/21 03:46:37;;;;;;;8.07;6.77;;;6.50;98.30;;;;;;5072665;28;20044;-75
2021/03/21 03:49:16;;;;;;;10.40;7.90;;;6.50;98.30;;;;;;5070320;28;20043;-75
2021/03/21 03:51:58;;;;;;;8.17;7.00;;;6.50;98.40;;;;;;5067516;28;20677;-75
2021/03/21 03:54:39;;;;;;;10.83;6.93;;;6.50;98.40;;;;;;5068665;28;20487;-75
2021/03/21 03:57:09;;;;;;;12.97;8.70;;;6.50;98.50;;;;;;5072057;28;20037;-77
2021/03/21 03:59:59;;;;;;;10.53;7.93;;;6.50;98.50;;;;;;5072176;28;20028;-77
2021/03/21 04:03:08;;;;;;;9.53;8.07;;;6.50;98.60;;;;;;5069632;28;20032;-76
2021/03/21 04:05:55;;;;;;;8.57;6.63;;;6.50;98.60;;;;;;4992830;28;20044;-76
2021/03/21 04:08:45;;;;;;;11.03;8.97;;;6.50;98.70;;;;;;5081914;28;20037;-76
2021/03/21 04:11:32;;;;;;;9.60;7.07;;;6.50;98.80;;;;;;5068410;28;20045;-76
2021/03/21 04:14:22;;;;;;;9.57;7.70;;;6.50;98.80;;;;;;5071737;28;20033;-76
2021/03/21 04:17:06;;;;;;;13.57;8.37;;;6.50;98.90;;;;;;5069032;28;20024;-76
2021/03/21 04:19:38;;;;;;;9.33;6.73;;;6.40;98.90;;;;;;5068710;28;20025;-76
2021/03/21 04:22:16;;;;;;;9.73;6.53;;;6.50;99.00;;;;;;5067148;28;20459;-76
2021/03/21 04:25:05;;;;;;;11.67;8.00;;;6.50;99.00;;;;;;5054643;28;20044;-77
2021/03/21 04:28:13;;;;;;;11.67;8.60;;;6.50;99.00;;;;;;5072072;28;20032;-76
2021/03/21 04:30:48;;;;;;;14.30;7.63;;;6.50;99.00;;;;;;5073369;28;20044;-77
2021/03/21 04:33:21;;;;;;;13.60;7.90;;;6.50;99.00;;;;;;5074730;28;20103;-77
2021/03/21 04:35:54;;;;;;;11.73;8.13;;;6.50;99.10;;;;;;5075323;28;20040;-76
2021/03/21 04:38:31;;;;;;;13.27;8.68;;;6.50;99.10;;;;;;5054013;28;20486;-77
2021/03/21 04:41:00;;;;;;;12.70;8.93;;;6.50;99.10;;;;;;5073740;28;20048;-76
2021/03/21 04:43:34;;;;;;;10.77;7.13;;;6.60;99.10;;;;;;5042732;28;20123;-75
2021/03/21 04:46:06;;;;;;;13.00;8.60;;;6.60;99.10;;;;;;5071497;28;20041;-74
2021/03/21 04:48:33;;;;;;;10.43;7.80;;;6.60;99.10;;;;;;5072018;28;20036;-75
2021/03/21 04:51:03;;;;;;;16.17;8.57;;;6.60;99.10;;;;;;5064662;28;20476;-76
2021/03/21 04:53:49;;;;;;;14.20;9.57;;;6.60;99.10;;;;;;5058090;28;20033;-76
2021/03/21 04:56:26;;;;;;;13.57;8.33;;;6.60;99.10;;;;;;5063940;28;20029;-75
2021/03/21 04:59:02;;;;;;;13.53;8.10;;;6.60;99.10;;;;;;5073450;28;20036;-75
2021/03/21 05:01:38;;;;;;;17.45;10.80;;;6.60;99.10;;;;;;5070577;28;20047;-75
2021/03/21 05:04:12;;;;;;;15.23;8.80;;;6.60;99.30;;;;;;5040936;28;20024;-76
2021/03/21 05:07:23;;;;;;;16.60;10.03;;;6.60;99.10;;;;;;5054989;28;20047;-76
2021/03/21 05:09:54;;;;;;;12.98;8.55;;;6.60;99.10;;;;;;5028049;28;20032;-76
2021/03/21 05:12:35;;;;;;;16.48;9.10;;;6.60;99.10;;;;;;5070723;28;20048;-76
2021/03/21 05:15:11;;;;;;;12.73;8.43;;;6.70;99.10;;;;;;5075379;28;20719;-76
2021/03/21 05:17:46;;;;;;;16.57;9.43;;;6.70;99.10;;;;;;5071693;28;20051;-76
2021/03/21 05:20:40;;;;;;;14.00;8.60;;;6.70;99.10;;;;;;5075452;28;20047;-76
2021/03/21 05:23:28;;;;;;;14.03;9.10;;;6.70;99.10;;;;;;5074549;28;20033;-76
2021/03/21 05:26:09;;;;;;;15.00;8.67;;;6.70;99.10;;;;;;5055243;28;20032;-76
2021/03/21 05:28:59;;;;;;;13.43;8.32;;;6.70;99.00;;;;;;5071722;28;20059;-76
2021/03/21 05:31:26;;;;;;;14.80;8.63;;;6.70;99.00;;;;;;5066050;28;20028;-76
2021/03/21 05:33:53;;;;;;;13.73;7.73;;;6.70;99.10;;;;;;5074199;28;20055;-77
2021/03/21 05:36:28;;;;;;;13.77;6.80;;;6.70;99.00;;;;;;5070789;28;20040;-76
2021/03/21 05:38:57;;;;;;;14.88;7.97;;;6.70;99.00;;;;;;5063375;28;20035;-76
2021/03/21 05:41:32;;;;;;;11.60;6.57;;;6.80;99.00;;;;;;5079847;28;20044;-77
2021/03/21 05:44:16;;;;;;;13.40;6.30;;;6.70;98.90;;;;;;5079798;28;20041;-77
2021/03/21 05:47:08;;;;;;;16.20;5.90;;;6.70;98.90;;;;;;5075802;28;20062;-76
2021/03/21 05:50:03;;;;;;;12.75;5.28;;;6.70;98.90;;;;;;5055661;28;20028;-76
2021/03/21 05:52:52;;;;;;;17.10;6.63;;;6.80;98.90;;;;;;5074096;28;20127;-76
2021/03/21 05:55:43;;;;;;;10.68;5.45;;;6.80;98.80;;;;;;5075849;28;20035;-76
2021/03/21 05:58:48;;;;;;;7.93;3.63;;;6.70;98.80;;;;;;5081330;28;20041;-76
2021/03/21 06:01:23;;;;;;;13.13;3.27;;;6.70;98.70;;;;;;5084477;28;20044;-76
2021/03/21 06:04:17;;;;;;;11.93;3.00;;;6.80;98.80;;;;;;5072415;28;20047;-76
2021/03/21 06:07:18;;;;;;;9.87;2.03;;;6.80;98.70;;;;;;5073489;28;20498;-75
2021/03/21 06:09:57;;;;;;;7.27;1.40;;;6.70;98.60;;;;;;5071437;28;20064;-76
2021/03/21 06:12:53;;;;;;;8.00;1.25;;;6.70;98.50;;;;;;5070075;28;20055;-76
2021/03/21 06:15:47;;;;;;;6.30;0.90;;;6.70;98.50;;;;;;5058966;28;20490;-76
2021/03/21 06:18:13;;;;;;;8.60;1.00;;;6.70;98.50;;;;;;5050559;28;20055;-76
2021/03/21 06:21:01;;;;;;;9.90;1.40;;;6.70;98.50;;;;;;5053864;28;20037;-76
2021/03/21 06:23:41;;;;;;;10.30;1.13;;;6.70;98.50;;;;;;5070722;28;20048;-76
2021/03/21 06:26:32;;;;;;;7.40;1.17;;;6.70;98.50;;;;;;5072279;28;20041;-76
2021/03/21 06:29:07;;;;;;;5.63;0.70;;;6.70;98.50;;;;;;5070098;28;20039;-76
2021/03/21 06:32:11;;;;;;;5.77;0.90;;;6.70;98.60;;;;;;5071361;28;20411;-76
2021/03/21 06:35:09;;;;;;;6.10;0.87;;;6.70;98.60;;;;;;5070077;28;20048;-76
2021/03/21 06:37:45;;;;;;;10.32;1.02;;;6.80;98.60;;;;;;5061298;28;20055;-76
2021/03/21 06:40:50;;;;;;;8.02;0.70;;;6.70;98.50;;;;;;5052627;28;20036;-76
2021/03/21 06:43:25;;;;;;;6.18;0.70;;;6.80;98.70;;;;;;5075484;28;20036;-76
2021/03/21 06:45:57;;;;;;;10.93;0.97;;;6.80;98.60;;;;;;5071423;28;20479;-76
2021/03/21 06:49:10;;;;;;;8.40;0.88;;;6.80;98.70;;;;;;5037941;28;20037;-75
2021/03/21 06:52:06;;;;;;;10.30;0.70;;;6.80;98.70;;;;;;5073595;28;20488;-76
2021/03/21 06:54:35;;;;;;;6.30;0.60;;;6.80;98.70;;;;;;5073074;28;20032;-75
2021/03/21 06:57:30;;;;;;;7.90;0.70;;;6.90;98.70;;;;;;5071782;28;20051;-75
2021/03/21 07:00:18;;;;;;;8.17;0.77;;;6.90;98.70;;;;;;5067992;28;20087;-75
2021/03/21 07:03:20;;;;;;;10.00;0.90;;;6.80;98.50;;;;;;5073898;28;20044;-75
2021/03/21 07:06:22;;;;;;;13.40;1.17;;;6.80;98.50;;;;;;5070296;28;20475;-76
2021/03/21 07:09:07;;;;;;;5.23;0.50;;;6.80;98.30;;;;;;5070362;28;20162;-75
2021/03/21 07:11:57;;;;;;;8.87;0.70;;;6.80;98.40;;;;;;5063997;28;20059;-76
2021/03/21 07:14:42;;;;;;;10.30;1.33;;;6.90;98.40;;;;;;5073667;28;20032;-76
2021/03/21 07:17:37;;;;;;;12.50;1.00;;;6.90;98.30;;;;;;5073095;28;20047;-76
2021/03/21 07:20:27;;;;;;;9.90;0.77;;;7.00;98.20;;;;;;5053996;28;20028;-76
2021/03/21 07:23:08;;;;;;;6.27;0.50;;;7.00;98.10;;;;;;5071636;28;20032;-76
2021/03/21 07:26:03;;;;;;;11.63;0.87;;;7.00;97.80;;;;;;5063569;28;20517;-76
2021/03/21 07:29:06;;;;;;;13.45;0.95;;;7.00;97.80;;;;;;5065317;28;20032;-76
2021/03/21 07:31:45;;;;;;;16.30;1.00;;;7.10;97.60;;;;;;5067589;28;20044;-76
2021/03/21 07:34:21;;;;;;;11.95;1.33;;;7.10;97.60;;;;;;5070514;28;20040;-75
2021/03/21 07:37:25;;;;;;;4.25;0.50;;;7.20;97.60;;;;;;5069862;28;20043;-76
2021/03/21 07:39:54;;;;;;;12.85;0.60;;;7.30;97.60;;;;;;5071329;28;20502;-76
2021/03/21 07:42:48;;;;;;;8.87;0.60;;;7.40;97.30;;;;;;5070953;28;20051;-76
2021/03/21 07:45:26;;;;;;;13.23;0.83;;;7.50;97.30;;;;;;5073322;28;20048;-76
2021/03/21 07:48:29;;;;;;;13.13;1.05;;;7.60;96.90;;;;;;5059424;28;20752;-76
2021/03/21 07:51:17;;;;;;;10.32;0.80;;;7.70;96.70;;;;;;5073681;28;20031;-76
2021/03/21 07:53:50;;;;;;;9.30;0.60;;;7.70;96.00;;;;;;5054286;28;20399;-76
2021/03/21 07:56:35;;;;;;;12.32;0.82;;;7.80;96.00;;;;;;5069682;28;20055;-76
2021/03/21 07:59:08;;;;;;;10.75;1.15;;;7.80;95.40;;;;;;5072364;28;20047;-76
2021/03/21 08:01:35;;;;;;;11.63;0.93;;;7.90;95.20;;;;;;5072509;28;20479;-77
2021/03/21 08:04:08;;;;;;;11.35;1.17;;;7.90;95.50;;;;;;5076088;28;20032;-76
2021/03/21 08:06:41;;;;;;;11.23;1.40;;;8.00;95.30;;;;;;5055601;28;20047;-77
2021/03/21 08:09:20;;;;;;;13.52;1.42;;;8.10;95.10;;;;;;5074117;28;20047;-77
2021/03/21 08:12:18;;;;;;;12.52;1.00;;;8.10;94.50;;;;;;5073529;28;20059;-77
2021/03/21 08:15:00;;;;;;;13.65;1.58;;;8.00;93.60;;;;;;5059628;28;20044;-76
2021/03/21 08:17:31;;;;;;;21.75;1.75;;;7.90;93.60;;;;;;5071449;28;20540;-77
2021/03/21 08:20:07;;;;;;;15.48;2.15;;;7.90;93.70;;;;;;5057917;28;20029;-79
2021/03/21 08:22:34;;;;;;;16.52;1.35;;;7.90;93.50;;;;;;5073152;28;20028;-79
2021/03/21 08:25:30;;;;;;;16.58;1.65;;;8.00;93.30;;;;;;5073975;28;20036;-81
2021/03/21 08:27:58;;;;;;;24.45;4.25;;;8.00;93.50;;;;;;5071617;28;20483;-79
2021/03/21 08:30:27;;;;;;;21.02;2.22;;;8.10;92.90;;;;;;5076708;28;20039;-77
2021/03/21 08:33:03;;;;;;;17.67;1.30;;;8.20;92.50;;;;;;5076558;28;20059;-78
2021/03/21 08:35:33;;;;;;;26.85;2.25;;;8.30;92.50;;;;;;5076778;28;20056;-77
2021/03/21 08:38:15;;;;;;;17.02;2.03;;;8.50;92.40;;;;;;5080135;28;20411;-77
2021/03/21 08:40:43;;;;;;;19.27;2.53;;;8.60;92.60;;;;;;5074123;28;20040;-77
2021/03/21 08:43:33;;;;;;;15.60;2.03;;;8.70;91.90;;;;;;5069198;28;20036;-77
2021/03/21 08:46:02;;;;;;;17.63;2.15;;;8.70;90.80;;;;;;5061516;28;20045;-77
2021/03/21 08:48:35;;;;;;;24.25;2.78;;;8.70;90.50;;;;;;5086218;28;20403;-78
2021/03/21 08:51:04;;;;;;;19.92;2.40;;;8.60;90.10;;;;;;5069288;28;20031;-78
2021/03/21 08:53:41;;;;;;;22.85;1.73;;;8.50;90.00;;;;;;5074807;28;20029;-80
2021/03/21 08:56:24;;;;;;;31.83;10.80;;;8.50;90.40;;;;;;5061109;28;20037;-79
2021/03/21 08:59:29;;;;;;;25.38;3.75;;;8.50;90.50;;;;;;5058160;28;20028;-79
2021/03/21 09:01:57;;;;;;;30.30;8.00;;;8.50;90.60;;;;;;5068111;28;20040;-79
2021/03/21 09:04:26;;;;;;;28.08;2.80;;;8.50;90.70;;;;;;5065189;28;20040;-80
2021/03/21 09:06:53;;;;;;;21.85;2.28;;;8.50;90.10;;;;;;5045551;28;20032;-79
2021/03/21 09:09:21;;;;;;;29.08;3.35;;;8.50;90.50;;;;;;5063891;28;20032;-79
2021/03/21 09:11:54;;;;;;;31.63;5.53;;;8.60;90.10;;;;;;5062946;28;20095;-78
2021/03/21 09:14:31;;;;;;;37.38;5.20;;;8.60;88.90;;;;;;5017180;28;20043;-79
2021/03/21 09:17:01;;;;;;;31.90;3.60;;;8.70;86.20;;;;;;5021296;28;20032;-79
2021/03/21 09:19:34;;;;;;;25.95;3.22;;;8.70;85.90;;;;;;5041521;28;20037;-81
2021/03/21 09:22:02;;;;;;;;;;;8.80;84.90;;;;;;5025391;28;20056;-78
2021/03/21 09:24:37;;;;;;;30.77;4.47;;;8.80;85.30;;;;;;5043226;28;20382;-78
2021/03/21 09:27:17;;;;;;;34.20;3.67;;;8.90;84.70;;;;;;5055172;28;20052;-80
2021/03/21 09:29:45;;;;;;;27.95;3.40;;;8.90;83.10;;;;;;5042460;28;20468;-80
2021/03/21 09:32:26;;;;;;;31.73;4.13;;;8.90;83.00;;;;;;5031302;28;20518;-79
2021/03/21 09:35:03;;;;;;;24.15;4.55;;;8.90;82.10;;;;;;5026141;28;20029;-80
2021/03/21 09:37:36;;;;;;;28.05;4.63;;;8.90;83.40;;;;;;5025872;28;20041;-79
2021/03/21 09:40:24;;;;;;;23.90;3.35;;;9.10;83.50;;;;;;5031069;28;20033;-79
2021/03/21 09:42:51;;;;;;;29.23;3.47;;;9.20;82.90;;;;;;5018645;28;20041;-77
2021/03/21 09:45:18;;;;;;;27.50;3.20;;;9.30;82.30;;;;;;5029497;28;20104;-80
2021/03/21 09:48:05;;;;;;;27.42;2.90;;;9.40;82.40;;;;;;5013887;28;20040;-80
2021/03/21 09:50:55;;;;;;;23.05;3.25;;;9.40;82.30;;;;;;5027494;28;20345;-80
2021/03/21 09:53:34;;;;;;;18.33;2.75;;;9.50;83.00;;;;;;5042334;28;20529;-79
2021/03/21 09:56:17;;;;;;;22.27;3.22;;;9.50;81.50;;;;;;5024006;28;20044;-80
2021/03/21 09:59:13;;;;;;;23.55;3.40;;;9.40;80.80;;;;;;5031008;28;20033;-80
2021/03/21 10:01:48;;;;;;;32.53;4.40;;;9.40;80.30;;;;;;5016100;28;20037;-79
2021/03/21 10:04:27;;;;;;;28.08;5.22;;;9.30;80.00;;;;;;5008123;28;20033;-79
2021/03/21 10:07:00;;;;;;;26.45;5.43;;;9.20;79.30;;;;;;5023921;28;20029;-79
2021/03/21 10:09:31;;;;;;;26.35;3.42;;;9.20;80.80;;;;;;5043093;28;20049;-79
2021/03/21 10:12:08;;;;;;;30.95;4.78;;;9.30;81.50;;;;;;5035926;28;20049;-79
2021/03/21 10:14:35;;;;;;;26.17;2.97;;;9.40;79.10;;;;;;5051065;28;20029;-78
2021/03/21 10:17:17;;;;;;;26.23;3.90;;;9.40;79.80;;;;;;5069362;28;20048;-80
2021/03/21 10:19:46;;;;;;;23.70;3.03;;;9.40;78.80;;;;;;5067606;28;20048;-77
2021/03/21 10:22:28;;;;;;;26.50;4.03;;;9.40;78.10;;;;;;5072046;28;20031;-78
2021/03/21 10:25:01;;;;;;;26.23;3.03;;;9.50;78.80;;;;;;5055872;28;20044;-79
2021/03/21 10:27:36;;;;;;;21.75;2.75;;;9.60;79.60;;;;;;5069020;28;20039;-80
2021/03/21 10:30:09;;;;;;;20.83;3.83;;;9.60;80.40;;;;;;5054078;28;20032;-79
2021/03/21 10:32:45;;;;;;;20.30;2.85;;;9.70;78.60;;;;;;5057879;28;20045;-79
2021/03/21 10:35:26;;;;;;;22.52;3.03;;;9.70;79.30;;;;;;5073833;28;20040;-80
2021/03/21 10:38:43;;;;;;;27.63;3.75;;;9.80;78.20;;;;;;5067485;28;20497;-77
2021/03/21 10:41:10;;;;;;;30.40;8.23;;;10.00;76.90;;;;;;5072931;28;20778;-78
2021/03/21 10:43:56;;;;;;;28.08;5.88;;;10.00;77.00;;;;;;5070023;28;20032;-78
2021/03/21 10:46:43;;;;;;;24.35;3.83;;;10.00;76.40;;;;;;5055670;28;20146;-77
2021/03/21 10:49:10;;;;;;;21.85;3.05;;;10.00;77.60;;;;;;5077362;28;20039;-78
2021/03/21 10:52:06;;;;;;;26.42;4.43;;;10.10;79.00;;;;;;5061601;28;20036;-78
2021/03/21 10:54:32;;;;;;;21.23;4.65;;;10.10;77.80;;;;;;5054197;28;20044;-78
2021/03/21 10:57:44;;;;;;;22.73;3.28;;;10.20;78.70;;;;;;5036256;28;20063;-78
2021/03/21 11:00:20;;;;;;;22.05;3.40;;;10.20;77.00;;;;;;5050087;28;20357;-78
2021/03/21 11:03:01;;;;;;;23.00;3.80;;;10.30;77.70;;;;;;5057363;28;20031;-78
2021/03/21 11:05:45;;;;;;;28.50;3.58;;;10.40;75.60;;;;;;5076873;28;20040;-77
2021/03/21 11:08:30;;;;;;;21.13;2.85;;;10.40;74.80;;;;;;5067870;28;20032;-76
2021/03/21 11:11:00;;;;;;;21.00;2.88;;;10.40;74.80;;;;;;5057225;28;20043;-77
2021/03/21 11:13:33;;;;;;;21.42;2.80;;;10.40;76.00;;;;;;5072864;28;20040;-78
2021/03/21 11:16:21;;;;;;;20.67;2.50;;;10.50;76.40;;;;;;5044482;28;20033;-78
2021/03/21 11:18:54;;;;;;;24.92;4.05;;;10.50;76.40;;;;;;5032896;28;20361;-79
2021/03/21 11:21:24;;;;;;;26.52;3.78;;;10.80;77.80;;;;;;5058877;28;20028;-77
2021/03/21 11:23:55;;;;;;;32.72;5.80;;;11.10;75.00;;;;;;5040092;28;20052;-77
2021/03/21 11:26:24;;;;;;;21.77;4.80;;;11.20;72.90;;;;;;5074254;28;20387;-77
2021/03/21 11:28:53;;;;;;;21.58;4.93;;;11.10;71.90;;;;;;5034949;28;20051;-76
2021/03/21 11:31:35;;;;;;;25.27;3.45;;;11.00;73.30;;;;;;5032448;28;20036;-77
2021/03/21 11:34:23;;;;;;;22.33;3.28;;;11.10;72.70;;;;;;5054115;28;20032;-77
2021/03/21 11:37:06;;;;;;;21.15;3.25;;;11.10;72.20;;;;;;5056853;28;20483;-78
2021/03/21 11:39:33;;;;;;;25.73;3.47;;;11.10;71.50;;;;;;5056382;28;20028;-77
2021/03/21 11:42:00;;;;;;;24.65;4.60;;;11.10;72.20;;;;;;5041341;28;20059;-79
2021/03/21 11:44:29;;;;;;;25.88;3.47;;;11.00;71.60;;;;;;5042853;28;20051;-78
2021/03/21 11:47:10;;;;;;;21.83;3.55;;;11.00;71.00;;;;;;5050374;28;20062;-77
2021/03/21 11:49:38;;;;;;;28.57;4.47;;;11.00;71.90;;;;;;5055326;28;20043;-78
2021/03/21 11:52:05;;;;;;;23.10;5.28;;;11.00;71.70;;;;;;5040880;28;20036;-77
2021/03/21 11:54:34;;;;;;;23.77;6.32;;;11.20;71.00;;;;;;5029169;28;20048;-77
2021/03/21 11:57:07;;;;;;;24.98;4.20;;;11.20;71.70;;;;;;5039881;28;20036;-76
2021/03/21 11:59:41;;;;;;;;;;;11.30;71.90;;;;;;5056916;28;20371;-76
2021/03/21 12:02:27;;;;;;;16.25;3.13;;;11.30;71.80;;;;;;5056386;28;19922;-76
2021/03/21 12:04:55;;;;;;;23.20;3.70;;;11.50;71.70;;;;;;5072301;28;20406;-76
2021/03/21 12:07:28;;;;;;;27.20;4.28;;;11.60;70.70;;;;;;5036368;28;20028;-76
2021/03/21 12:09:56;;;;;;;19.20;3.42;;;11.60;68.40;;;;;;5073131;28;20824;-76
2021/03/21 12:12:39;;;;;;;26.90;4.57;;;11.40;69.40;;;;;;5078231;28;20056;-77
2021/03/21 12:15:32;;;;;;;23.30;3.70;;;11.20;70.20;;;;;;5023720;28;20032;-76
2021/03/21 12:18:04;;;;;;;;;;;11.10;70.90;;;;;;5056894;28;20056;-77
2021/03/21 12:20:45;;;;;;;27.38;5.05;;;10.80;70.60;;;;;;5056694;28;20295;-78
2021/03/21 12:23:35;;;;;;;38.97;12.43;;;10.60;71.80;;;;;;5072828;28;20032;-77
2021/03/21 12:26:10;;;;;;;29.35;5.15;;;10.40;71.50;;;;;;5041391;28;20110;-76
2021/03/21 12:28:47;;;;;;;31.85;4.45;;;10.30;72.40;;;;;;5036289;28;20052;-76
2021/03/21 12:31:19;;;;;;;28.42;4.45;;;10.30;72.30;;;;;;5051562;28;20044;-76
2021/03/21 12:33:46;;;;;;;33.45;4.45;;;10.40;71.90;;;;;;5052489;28;20127;-77
2021/03/21 12:36:18;;;;;;;28.45;4.68;;;10.50;71.00;;;;;;5026180;28;20494;-76
2021/03/21 12:38:56;;;;;;;30.55;4.70;;;10.60;72.30;;;;;;5056835;28;20055;-76
2021/03/21 12:41:35;;;;;;;28.63;4.22;;;10.70;71.50;;;;;;5073058;28;20039;-76
2021/03/21 12:44:28;;;;;;;21.25;3.05;;;10.70;71.70;;;;;;5055522;28;20047;-80
2021/03/21 12:47:00;;;;;;;20.10;3.08;;;10.70;72.60;;;;;;5054775;28;20391;-77
2021/03/21 12:49:39;;;;;;;26.95;4.07;;;10.70;73.60;;;;;;5062739;28;20033;-76
2021/03/21 12:52:12;;;;;;;23.67;2.78;;;10.60;71.90;;;;;;5084805;28;20055;-79
2021/03/21 12:54:40;;;;;;;27.52;4.25;;;10.50;72.40;;;;;;5040453;28;20052;-78
2021/03/21 12:57:11;;;;;;;25.75;4.55;;;10.40;72.70;;;;;;5059456;28;20054;-81
2021/03/21 12:59:50;;;;;;;32.88;5.38;;;10.40;73.10;;;;;;5059894;28;20045;-77
2021/03/21 13:02:30;;;;;;;21.40;4.68;;;10.40;72.70;;;;;;5080667;28;20395;-77
2021/03/21 13:04:59;;;;;;;21.33;3.70;;;10.40;72.80;;;;;;5046130;28;20043;-78
2021/03/21 13:07:27;;;;;;;23.02;4.35;;;10.30;73.10;;;;;;5045602;28;20039;-79
2021/03/21 13:09:54;;;;;;;21.05;4.40;;;10.40;73.70;;;;;;5038130;28;20036;-79
2021/03/21 13:12:21;;;;;;;22.92;3.45;;;10.40;73.20;;;;;;5039282;28;20067;-79
2021/03/21 13:14:49;;;;;;;21.80;3.13;;;10.40;72.70;;;;;;5070977;28;20039;-79
2021/03/21 13:17:17;;;;;;;30.02;4.45;;;10.50;71.00;;;;;;5070119;28;20413;-79
2021/03/21 13:19:44;;;;;;;25.95;3.47;;;10.40;71.60;;;;;;5070183;28;20039;-79
2021/03/21 13:22:12;;;;;;;24.48;3.83;;;10.30;71.40;;;;;;5076433;28;20036;-78
2021/03/21 13:24:39;;;;;;;27.73;4.95;;;10.20;71.60;;;;;;5070963;28;20040;-77
2021/03/21 13:27:06;;;;;;;23.70;5.72;;;10.20;71.70;;;;;;5051624;28;20036;-78
2021/03/21 13:29:33;;;;;;;29.73;3.97;;;10.10;71.90;;;;;;5057816;28;20482;-76
2021/03/21 13:31:59;;;;;;;21.95;2.63;;;10.20;72.10;;;;;;5074887;28;20047;-76
2021/03/21 13:34:31;;;;;;;38.40;9.48;;;10.20;71.70;;;;;;5076238;28;20047;-81
2021/03/21 13:37:00;;;;;;;32.63;4.35;;;10.30;71.60;;;;;;5051369;28;20052;-80
2021/03/21 13:39:27;;;;;;;26.45;3.22;;;10.30;71.30;;;;;;5073952;28;20044;-81
2021/03/21 13:41:53;;;;;;;35.03;7.38;;;10.30;71.50;;;;;;5038445;28;20509;-80
2021/03/21 13:44:20;;;;;;;22.45;3.50;;;10.20;71.50;;;;;;5066244;28;20035;-80